createdAt,value
2023-02-09T00:01:31.510Z,-2.95
2023-02-09T00:04:00.231Z,-2.97
2023-02-09T00:06:29.914Z,-2.97
2023-02-09T00:08:58.741Z,-2.96
2023-02-09T00:11:48.486Z,-2.98
2023-02-09T00:14:21.410Z,-3.01
2023-02-09T00:16:49.772Z,-3.02
2023-02-09T00:19:18.328Z,-3.04
2023-02-09T00:21:45.612Z,-3.07
2023-02-09T00:24:14.183Z,-3.11
2023-02-09T00:26:42.456Z,-3.11
2023-02-09T00:29:10.522Z,-3.12
2023-02-09T00:31:38.053Z,-3.16
2023-02-09T00:34:05.665Z,-3.20
2023-02-09T00:36:33.628Z,-3.24
2023-02-09T00:39:01.236Z,-3.25
2023-02-09T00:41:46.550Z,-3.27
2023-02-09T00:44:13.672Z,-3.29
2023-02-09T00:46:40.614Z,-3.29
2023-02-09T00:49:07.654Z,-3.30
2023-02-09T00:51:34.957Z,-3.33
2023-02-09T00:54:02.306Z,-3.33
2023-02-09T00:56:29.282Z,-3.36
2023-02-09T00:58:56.304Z,-3.38
2023-02-09T01:01:23.462Z,-3.40
2023-02-09T01:03:50.466Z,-3.40
2023-02-09T01:06:17.455Z,-3.42
2023-02-09T01:08:44.413Z,-3.43
2023-02-09T01:11:15.422Z,-3.44
2023-02-09T01:13:43.757Z,-3.44
2023-02-09T01:16:15.341Z,-3.44
2023-02-09T01:18:43.282Z,-3.45
2023-02-09T01:21:20.863Z,-3.45
2023-02-09T01:23:48.975Z,-3.46
2023-02-09T01:26:17.339Z,-3.47
2023-02-09T01:28:44.859Z,-3.47
2023-02-09T01:31:24.256Z,-3.50
2023-02-09T01:33:53.472Z,-3.52
2023-02-09T01:36:21.221Z,-3.55
2023-02-09T01:38:48.596Z,-3.55
2023-02-09T01:41:15.689Z,-3.58
2023-02-09T01:44:11.748Z,-3.60
2023-02-09T01:46:39.806Z,-3.65
2023-02-09T01:49:20.250Z,-3.66
2023-02-09T01:51:57.552Z,-3.67
2023-02-09T01:54:39.474Z,-3.69
2023-02-09T01:57:12.321Z,-3.69
2023-02-09T01:59:43.014Z,-3.70
2023-02-09T02:02:11.117Z,-3.71
2023-02-09T02:04:39.284Z,-3.71
2023-02-09T02:07:30.058Z,-3.72
2023-02-09T02:09:57.236Z,-3.73
2023-02-09T02:12:25.119Z,-3.74
2023-02-09T02:14:52.208Z,-3.75
2023-02-09T02:17:40.204Z,-3.77
2023-02-09T02:20:42.829Z,-3.80
2023-02-09T02:23:25.949Z,-3.82
2023-02-09T02:26:07.750Z,-3.85
2023-02-09T02:29:04.961Z,-3.86
2023-02-09T02:32:08.570Z,-3.88
2023-02-09T02:34:44.198Z,-3.90
2023-02-09T02:37:48.211Z,-3.93
2023-02-09T02:40:45.035Z,-3.95
2023-02-09T02:43:37.771Z,-3.95
2023-02-09T02:46:27.989Z,-3.97
2023-02-09T02:49:05.691Z,-4.00
2023-02-09T02:51:40.835Z,-3.99
2023-02-09T02:54:17.283Z,-3.99
2023-02-09T02:56:53.733Z,-4.00
2023-02-09T02:59:30.990Z,-4.01
2023-02-09T03:02:33.585Z,-4.02
2023-02-09T03:05:02.240Z,-4.00
2023-02-09T03:07:29.280Z,-4.00
2023-02-09T03:09:57.459Z,-4.00
2023-02-09T03:12:48.904Z,-4.01
2023-02-09T03:15:27.011Z,-4.02
2023-02-09T03:18:18.591Z,-4.04
2023-02-09T03:21:05.319Z,-4.04
2023-02-09T03:23:47.478Z,-4.06
2023-02-09T03:26:28.044Z,-4.06
2023-02-09T03:28:57.408Z,-4.06
2023-02-09T03:31:25.638Z,-4.06
2023-02-09T03:33:52.840Z,-4.06
2023-02-09T03:36:20.864Z,-4.06
2023-02-09T03:38:48.150Z,-4.06
2023-02-09T03:41:15.267Z,-4.07
2023-02-09T03:44:01.027Z,-4.08
2023-02-09T03:46:28.030Z,-4.09
2023-02-09T03:48:55.023Z,-4.08
2023-02-09T03:51:22.005Z,-4.07
2023-02-09T03:53:48.957Z,-4.06
2023-02-09T03:56:16.000Z,-4.06
2023-02-09T03:58:42.951Z,-4.07
2023-02-09T04:01:11.401Z,-4.08
2023-02-09T04:03:39.886Z,-4.09
2023-02-09T04:06:07.309Z,-4.09
2023-02-09T04:08:34.285Z,-4.09
2023-02-09T04:11:02.332Z,-4.09
2023-02-09T04:13:29.654Z,-4.09
2023-02-09T04:15:56.727Z,-4.09
2023-02-09T04:18:23.772Z,-4.10
2023-02-09T04:20:50.748Z,-4.11
2023-02-09T04:23:20.047Z,-4.12
2023-02-09T04:25:47.878Z,-4.13
2023-02-09T04:28:14.902Z,-4.15
2023-02-09T04:30:43.843Z,-4.19
2023-02-09T04:33:11.388Z,-4.21
2023-02-09T04:35:38.639Z,-4.23
2023-02-09T04:38:05.542Z,-4.23
2023-02-09T04:40:32.591Z,-4.28
2023-02-09T04:42:59.519Z,-4.30
2023-02-09T04:45:26.476Z,-4.31
2023-02-09T04:47:53.429Z,-4.32
2023-02-09T04:50:20.394Z,-4.31
2023-02-09T04:52:47.340Z,-4.29
2023-02-09T04:55:14.340Z,-4.30
2023-02-09T04:57:59.529Z,-4.29
2023-02-09T05:00:26.488Z,-4.27
2023-02-09T05:02:54.978Z,-4.26
2023-02-09T05:05:21.948Z,-4.24
2023-02-09T05:07:48.980Z,-4.23
2023-02-09T05:10:16.496Z,-4.22
2023-02-09T05:12:43.477Z,-4.21
2023-02-09T05:15:11.010Z,-4.20
2023-02-09T05:17:37.916Z,-4.20
2023-02-09T05:20:06.551Z,-4.20
2023-02-09T05:22:33.826Z,-4.20
2023-02-09T05:25:00.841Z,-4.18
2023-02-09T05:27:27.757Z,-4.16
2023-02-09T05:29:54.700Z,-4.13
2023-02-09T05:32:21.803Z,-4.11
2023-02-09T05:34:48.727Z,-4.10
2023-02-09T05:37:15.773Z,-4.10
2023-02-09T05:39:42.905Z,-4.11
2023-02-09T05:42:16.531Z,-4.11
2023-02-09T05:44:48.812Z,-4.09
2023-02-09T05:47:20.101Z,-4.09
2023-02-09T05:49:47.383Z,-4.10
2023-02-09T05:52:16.732Z,-4.10
2023-02-09T05:54:44.099Z,-4.13
2023-02-09T05:57:11.070Z,-4.15
2023-02-09T05:59:38.108Z,-4.16
2023-02-09T06:02:05.190Z,-4.16
2023-02-09T06:04:32.511Z,-4.16
2023-02-09T06:06:59.763Z,-4.16
2023-02-09T06:09:27.074Z,-4.15
2023-02-09T06:11:54.107Z,-4.12
2023-02-09T06:14:21.374Z,-4.09
2023-02-09T06:16:48.555Z,-4.07
2023-02-09T06:19:21.519Z,-4.06
2023-02-09T06:21:48.904Z,-4.06
2023-02-09T06:24:16.728Z,-4.03
2023-02-09T06:26:43.881Z,-4.02
2023-02-09T06:29:10.967Z,-4.02
2023-02-09T06:31:38.439Z,-4.01
2023-02-09T06:34:05.889Z,-4.00
2023-02-09T06:36:33.789Z,-3.98
2023-02-09T06:39:01.234Z,-3.95
2023-02-09T06:41:28.591Z,-3.92
2023-02-09T06:43:55.769Z,-3.89
2023-02-09T06:46:22.782Z,-3.85
2023-02-09T06:48:50.384Z,-3.80
2023-02-09T06:51:18.108Z,-3.76
2023-02-09T06:53:45.371Z,-3.74
2023-02-09T06:56:13.723Z,-3.71
2023-02-09T06:58:41.810Z,-3.67
2023-02-09T07:01:12.615Z,-3.65
2023-02-09T07:03:39.651Z,-3.61
2023-02-09T07:06:10.578Z,-3.54
2023-02-09T07:08:37.808Z,-3.32
2023-02-09T07:11:08.704Z,-2.80
2023-02-09T07:13:36.247Z,-2.08
2023-02-09T07:16:06.114Z,-1.31
2023-02-09T07:18:33.613Z,-0.60
2023-02-09T07:21:08.631Z,0.07
2023-02-09T07:23:36.361Z,0.67
2023-02-09T07:26:10.804Z,1.26
2023-02-09T07:28:37.791Z,1.74
2023-02-09T07:31:08.346Z,2.11
2023-02-09T07:33:36.314Z,2.43
2023-02-09T07:36:05.420Z,2.62
2023-02-09T07:38:33.351Z,2.94
2023-02-09T07:41:02.208Z,3.22
2023-02-09T07:43:29.736Z,3.50
2023-02-09T07:46:05.942Z,3.85
2023-02-09T07:48:34.009Z,4.11
2023-02-09T07:51:02.177Z,4.40
2023-02-09T07:53:29.684Z,4.75
2023-02-09T07:55:56.893Z,4.96
2023-02-09T07:58:24.230Z,5.22
2023-02-09T08:00:51.735Z,5.57
2023-02-09T08:03:24.464Z,5.80
2023-02-09T08:06:40.670Z,5.94
2023-02-09T08:09:09.878Z,6.27
2023-02-09T08:11:59.201Z,6.48
2023-02-09T08:14:36.839Z,6.55
2023-02-09T08:17:20.509Z,6.69
2023-02-09T08:20:02.062Z,7.12
2023-02-09T08:22:33.752Z,7.56
2023-02-09T08:25:02.243Z,7.84
2023-02-09T08:27:29.793Z,8.12
2023-02-09T08:29:58.677Z,8.40
2023-02-09T08:32:25.658Z,8.64
2023-02-09T08:34:52.635Z,8.61
2023-02-09T08:37:19.539Z,8.62
2023-02-09T08:39:46.490Z,8.74
2023-02-09T08:42:13.464Z,8.87
2023-02-09T08:44:40.375Z,8.97
2023-02-09T08:47:07.533Z,9.04
2023-02-09T08:49:34.856Z,9.18
2023-02-09T08:52:02.003Z,9.33
2023-02-09T08:54:28.946Z,9.41
2023-02-09T08:56:55.910Z,9.43
2023-02-09T08:59:23.452Z,9.56
2023-02-09T09:01:50.368Z,9.85
2023-02-09T09:04:17.356Z,10.07
2023-02-09T09:06:44.304Z,10.02
2023-02-09T09:09:11.240Z,9.98
2023-02-09T09:11:38.153Z,9.76
2023-02-09T09:14:05.381Z,9.96
2023-02-09T09:16:32.535Z,9.92
2023-02-09T09:18:59.646Z,9.68
2023-02-09T09:21:26.625Z,9.43
2023-02-09T09:23:53.538Z,9.45
2023-02-09T09:26:20.561Z,9.68
2023-02-09T09:28:51.143Z,9.87
2023-02-09T09:31:19.840Z,10.10
2023-02-09T09:33:48.351Z,10.16
2023-02-09T09:36:15.493Z,10.33
2023-02-09T09:38:43.309Z,10.43
2023-02-09T09:41:32.048Z,10.39
2023-02-09T09:44:00.907Z,10.61
2023-02-09T09:46:50.359Z,10.63
2023-02-09T09:49:26.921Z,10.78
2023-02-09T09:52:29.180Z,10.30
2023-02-09T09:54:57.362Z,9.88
2023-02-09T09:57:32.565Z,9.48
2023-02-09T10:00:04.362Z,9.45
2023-02-09T10:02:34.030Z,9.16
2023-02-09T10:05:25.819Z,8.86
2023-02-09T10:08:07.918Z,8.76
2023-02-09T10:11:11.533Z,8.74
2023-02-09T10:13:44.517Z,8.94
2023-02-09T10:16:38.213Z,8.86
2023-02-09T10:19:19.391Z,8.90
2023-02-09T10:21:46.993Z,8.74
2023-02-09T10:24:24.965Z,8.55
2023-02-09T10:27:14.294Z,8.34
2023-02-09T10:29:41.792Z,8.21
2023-02-09T10:32:11.702Z,7.90
2023-02-09T10:34:38.547Z,7.74
2023-02-09T10:37:39.867Z,7.52
2023-02-09T10:40:19.338Z,7.44
2023-02-09T10:43:07.642Z,7.13
2023-02-09T10:45:38.732Z,6.86
2023-02-09T10:48:14.500Z,6.60
2023-02-09T10:51:07.956Z,6.44
2023-02-09T10:53:36.483Z,6.41
2023-02-09T10:56:07.442Z,6.38
2023-02-09T10:58:37.640Z,6.37
2023-02-09T11:01:10.173Z,6.10
2023-02-09T11:03:57.179Z,5.80
2023-02-09T11:06:24.421Z,5.65
2023-02-09T11:09:12.749Z,5.44
2023-02-09T11:11:41.917Z,5.35
2023-02-09T11:14:18.361Z,5.34
2023-02-09T11:17:22.394Z,5.57
2023-02-09T11:20:14.288Z,5.84
2023-02-09T11:23:25.990Z,5.86
2023-02-09T11:26:14.532Z,5.57
2023-02-09T11:29:53.115Z,5.21
2023-02-09T11:32:25.957Z,4.97
2023-02-09T11:35:08.288Z,4.73
2023-02-09T11:38:02.221Z,4.55
2023-02-09T11:40:53.969Z,4.35
2023-02-09T11:43:40.931Z,4.14
2023-02-09T11:46:19.828Z,4.03
2023-02-09T11:49:02.632Z,3.92
2023-02-09T11:51:31.981Z,3.87
2023-02-09T11:54:11.991Z,3.89
2023-02-09T11:56:50.832Z,3.93
2023-02-09T11:59:34.331Z,3.95
2023-02-09T12:02:47.457Z,3.97
2023-02-09T12:05:20.063Z,4.00
2023-02-09T12:08:25.187Z,4.05
2023-02-09T12:10:57.807Z,4.05
2023-02-09T12:13:51.760Z,4.10
2023-02-09T12:16:25.085Z,4.15
2023-02-09T12:18:55.054Z,4.19
2023-02-09T12:21:35.025Z,4.24
2023-02-09T12:24:02.331Z,4.24
2023-02-09T12:26:42.862Z,4.20
2023-02-09T12:29:39.122Z,4.18
2023-02-09T12:32:08.709Z,4.17
2023-02-09T12:34:51.326Z,4.13
2023-02-09T12:37:28.232Z,4.11
2023-02-09T12:40:18.380Z,4.08
2023-02-09T12:43:25.461Z,4.01
2023-02-09T12:46:15.835Z,3.95
2023-02-09T12:49:01.584Z,3.93
2023-02-09T12:51:56.284Z,3.94
2023-02-09T12:54:44.130Z,3.93
2023-02-09T12:57:17.351Z,3.92
2023-02-09T12:59:50.396Z,3.91
2023-02-09T13:02:50.676Z,3.92
2023-02-09T13:05:39.813Z,3.96
2023-02-09T13:08:18.490Z,4.01
2023-02-09T13:10:51.013Z,4.04
2023-02-09T13:13:48.341Z,4.06
2023-02-09T13:16:30.353Z,4.09
2023-02-09T13:19:03.101Z,4.12
2023-02-09T13:21:32.554Z,4.15
2023-02-09T13:24:13.472Z,4.16
2023-02-09T13:26:56.251Z,4.19
2023-02-09T13:29:31.836Z,4.22
2023-02-09T13:32:16.956Z,4.20
2023-02-09T13:35:19.305Z,4.18
2023-02-09T13:37:54.949Z,4.20
2023-02-09T13:40:32.340Z,4.24
2023-02-09T13:43:15.549Z,4.27
2023-02-09T13:45:56.895Z,4.28
2023-02-09T13:48:31.169Z,4.30
2023-02-09T13:51:04.055Z,4.31
2023-02-09T13:53:32.147Z,4.34
2023-02-09T13:56:00.623Z,4.34
2023-02-09T13:58:36.060Z,4.32
2023-02-09T14:01:12.059Z,4.31
2023-02-09T14:03:57.880Z,4.31
2023-02-09T14:06:37.900Z,4.29
2023-02-09T14:09:15.965Z,4.18
2023-02-09T14:12:52.749Z,4.06
2023-02-09T14:15:48.796Z,3.98
2023-02-09T14:18:56.856Z,3.96
2023-02-09T14:21:37.372Z,3.99
2023-02-09T14:24:20.534Z,3.99
2023-02-09T14:26:56.841Z,4.01
2023-02-09T14:29:33.200Z,4.01
2023-02-09T14:32:02.113Z,3.95
2023-02-09T14:34:35.582Z,3.89
2023-02-09T14:37:13.459Z,3.88
2023-02-09T14:40:04.713Z,3.86
2023-02-09T14:42:39.310Z,3.85
2023-02-09T14:45:15.383Z,3.82
2023-02-09T14:47:44.540Z,3.82
2023-02-09T14:50:16.124Z,3.79
2023-02-09T14:52:48.677Z,3.77
2023-02-09T14:55:25.532Z,3.76
2023-02-09T14:57:52.770Z,3.70
2023-02-09T15:00:26.056Z,3.65
2023-02-09T15:02:54.405Z,3.60
2023-02-09T15:05:23.406Z,3.52
2023-02-09T15:07:56.338Z,3.47
2023-02-09T15:10:29.630Z,3.42
2023-02-09T15:12:58.337Z,3.35
2023-02-09T15:15:26.717Z,3.28
2023-02-09T15:17:55.329Z,3.24
2023-02-09T15:20:26.888Z,3.19
2023-02-09T15:22:55.019Z,3.12
2023-02-09T15:25:24.472Z,3.07
2023-02-09T15:27:59.923Z,3.01
2023-02-09T15:30:35.015Z,2.98
2023-02-09T15:33:02.124Z,2.95
2023-02-09T15:35:29.936Z,2.90
2023-02-09T15:37:59.786Z,2.82
2023-02-09T15:40:55.247Z,2.75
2023-02-09T15:43:43.171Z,2.67
2023-02-09T15:46:10.962Z,2.59
2023-02-09T15:48:37.920Z,2.51
2023-02-09T15:51:05.181Z,2.42
2023-02-09T15:53:32.095Z,2.36
2023-02-09T15:55:59.892Z,2.31
2023-02-09T15:58:35.578Z,2.26
2023-02-09T16:01:03.670Z,2.21
2023-02-09T16:03:34.011Z,2.16
2023-02-09T16:06:07.240Z,2.11
2023-02-09T16:08:35.521Z,2.04
2023-02-09T16:11:02.910Z,1.98
2023-02-09T16:13:29.876Z,1.93
2023-02-09T16:16:05.125Z,1.89
2023-02-09T16:18:38.253Z,1.89
2023-02-09T16:21:06.617Z,1.90
2023-02-09T16:23:35.173Z,1.87
2023-02-09T16:26:05.175Z,1.81
2023-02-09T16:28:32.179Z,1.73
2023-02-09T16:30:59.316Z,1.67
2023-02-09T16:33:26.912Z,1.64
2023-02-09T16:35:57.767Z,1.62
2023-02-09T16:38:25.827Z,1.58
2023-02-09T16:40:55.100Z,1.53
2023-02-09T16:43:23.573Z,1.48
2023-02-09T16:46:02.817Z,1.45
2023-02-09T16:48:34.760Z,1.42
2023-02-09T16:51:02.338Z,1.40
2023-02-09T16:53:42.838Z,1.37
2023-02-09T16:56:12.842Z,1.35
2023-02-09T16:58:40.143Z,1.32
2023-02-09T17:01:34.463Z,1.31
2023-02-09T17:04:03.252Z,1.30
2023-02-09T17:06:30.701Z,1.26
2023-02-09T17:08:58.731Z,1.24
2023-02-09T17:11:28.165Z,1.20
2023-02-09T17:13:55.169Z,1.19
2023-02-09T17:16:25.856Z,1.16
2023-02-09T17:18:58.837Z,1.15
2023-02-09T17:21:31.411Z,1.17
2023-02-09T17:23:58.427Z,1.17
2023-02-09T17:26:25.590Z,1.19
2023-02-09T17:28:53.100Z,1.23
2023-02-09T17:31:43.761Z,1.26
2023-02-09T17:34:17.927Z,1.29
2023-02-09T17:36:45.095Z,1.29
2023-02-09T17:39:12.503Z,1.29
2023-02-09T17:41:45.296Z,1.29
2023-02-09T17:44:26.598Z,1.30
2023-02-09T17:47:03.432Z,1.27
2023-02-09T17:49:30.378Z,1.27
2023-02-09T17:51:57.472Z,1.24
2023-02-09T17:54:24.523Z,1.24
2023-02-09T17:56:51.487Z,1.23
2023-02-09T17:59:20.214Z,1.21
2023-02-09T18:01:50.388Z,1.19
2023-02-09T18:04:26.799Z,1.17
2023-02-09T18:06:55.463Z,1.14
2023-02-09T18:09:23.587Z,1.09
2023-02-09T18:11:59.925Z,1.07
2023-02-09T18:14:28.890Z,1.03
2023-02-09T18:16:56.151Z,0.99
2023-02-09T18:19:24.367Z,0.95
2023-02-09T18:22:02.204Z,0.89
2023-02-09T18:24:33.429Z,0.85
2023-02-09T18:27:00.726Z,0.82
2023-02-09T18:29:30.058Z,0.78
2023-02-09T18:32:02.742Z,0.74
2023-02-09T18:34:30.571Z,0.71
2023-02-09T18:36:57.623Z,0.67
2023-02-09T18:39:24.697Z,0.63
2023-02-09T18:41:54.694Z,0.60
2023-02-09T18:44:28.916Z,0.59
2023-02-09T18:46:57.652Z,0.61
2023-02-09T18:49:24.607Z,0.63
2023-02-09T18:51:52.226Z,0.62
2023-02-09T18:54:19.427Z,0.59
2023-02-09T18:56:46.386Z,0.55
2023-02-09T18:59:13.415Z,0.52
2023-02-09T19:01:41.041Z,0.50
2023-02-09T19:04:08.417Z,0.47
2023-02-09T19:06:35.683Z,0.45
2023-02-09T19:09:03.011Z,0.43
2023-02-09T19:11:30.620Z,0.41
2023-02-09T19:14:16.707Z,0.37
2023-02-09T19:16:43.858Z,0.34
2023-02-09T19:19:12.516Z,0.33
2023-02-09T19:21:39.670Z,0.30
2023-02-09T19:24:06.938Z,0.28
2023-02-09T19:26:34.278Z,0.27
2023-02-09T19:29:02.391Z,0.25
2023-02-09T19:31:29.525Z,0.24
2023-02-09T19:33:57.771Z,0.24
2023-02-09T19:36:27.757Z,0.23
2023-02-09T19:38:56.610Z,0.19
2023-02-09T19:41:25.495Z,0.20
2023-02-09T19:43:57.632Z,0.16
2023-02-09T19:46:26.637Z,0.14
2023-02-09T19:48:54.023Z,0.10
2023-02-09T19:51:21.751Z,0.09
2023-02-09T19:53:49.842Z,0.06
2023-02-09T19:56:20.909Z,0.04
2023-02-09T19:58:47.963Z,0.00
2023-02-09T20:01:15.458Z,-0.02
2023-02-09T20:03:43.122Z,-0.04
2023-02-09T20:06:13.619Z,-0.06
2023-02-09T20:08:41.540Z,-0.09
2023-02-09T20:11:16.849Z,-0.11
2023-02-09T20:13:44.755Z,-0.14
2023-02-09T20:16:18.789Z,-0.18
2023-02-09T20:18:48.849Z,-0.21
2023-02-09T20:21:21.788Z,-0.23
2023-02-09T20:23:49.253Z,-0.27
2023-02-09T20:26:29.635Z,-0.30
2023-02-09T20:28:58.189Z,-0.31
2023-02-09T20:31:34.970Z,-0.34
2023-02-09T20:34:07.930Z,-0.35
2023-02-09T20:36:38.760Z,-0.37
2023-02-09T20:39:10.121Z,-0.36
2023-02-09T20:41:37.505Z,-0.34
2023-02-09T20:44:23.396Z,-0.32
2023-02-09T20:46:56.692Z,-0.33
2023-02-09T20:49:37.008Z,-0.32
2023-02-09T20:52:04.292Z,-0.33
2023-02-09T20:54:32.296Z,-0.30
2023-02-09T20:56:59.639Z,-0.27
2023-02-09T20:59:26.656Z,-0.25
2023-02-09T21:01:53.801Z,-0.23
2023-02-09T21:04:20.908Z,-0.25
2023-02-09T21:06:48.164Z,-0.25
2023-02-09T21:09:16.200Z,-0.26
2023-02-09T21:11:43.538Z,-0.29
2023-02-09T21:14:21.794Z,-0.30
2023-02-09T21:16:58.309Z,-0.34
2023-02-09T21:19:25.879Z,-0.38
2023-02-09T21:21:53.341Z,-0.38
2023-02-09T21:24:20.610Z,-0.41
2023-02-09T21:26:47.819Z,-0.41
2023-02-09T21:29:15.270Z,-0.43
2023-02-09T21:31:42.452Z,-0.43
2023-02-09T21:34:16.934Z,-0.45
2023-02-09T21:36:44.048Z,-0.45
2023-02-09T21:39:11.192Z,-0.44
2023-02-09T21:41:56.980Z,-0.44
2023-02-09T21:44:24.318Z,-0.44
2023-02-09T21:46:51.739Z,-0.44
2023-02-09T21:49:19.252Z,-0.47
2023-02-09T21:51:46.696Z,-0.46
2023-02-09T21:54:16.290Z,-0.46
2023-02-09T21:56:44.235Z,-0.47
2023-02-09T21:59:12.101Z,-0.43
2023-02-09T22:01:40.910Z,-0.36
2023-02-09T22:04:08.327Z,-0.23
2023-02-09T22:06:35.746Z,-0.11
2023-02-09T22:09:06.148Z,0.02
2023-02-09T22:11:33.909Z,0.15
2023-02-09T22:14:02.280Z,0.28
2023-02-09T22:16:29.730Z,0.38
2023-02-09T22:18:57.354Z,0.41
2023-02-09T22:21:24.671Z,0.40
2023-02-09T22:23:55.385Z,0.41
2023-02-09T22:26:23.073Z,0.45
2023-02-09T22:28:50.407Z,0.52
2023-02-09T22:31:22.586Z,0.63
2023-02-09T22:33:58.548Z,0.76
2023-02-09T22:36:27.506Z,0.88
2023-02-09T22:38:54.969Z,0.99
2023-02-09T22:41:24.155Z,1.09
2023-02-09T22:44:03.858Z,1.20
2023-02-09T22:46:35.735Z,1.32
2023-02-09T22:49:19.323Z,1.40
2023-02-09T22:51:48.934Z,1.49
2023-02-09T22:54:18.866Z,1.60
2023-02-09T22:56:46.997Z,1.70
2023-02-09T22:59:16.128Z,1.76
2023-02-09T23:01:44.338Z,1.81
2023-02-09T23:04:12.024Z,1.87
2023-02-09T23:06:42.399Z,1.90
2023-02-09T23:09:10.179Z,1.96
2023-02-09T23:11:38.011Z,2.02
2023-02-09T23:14:09.930Z,2.06
2023-02-09T23:16:40.747Z,2.06
2023-02-09T23:19:13.234Z,2.08
2023-02-09T23:21:45.361Z,2.09
2023-02-09T23:24:15.470Z,2.12
2023-02-09T23:26:43.145Z,2.15
2023-02-09T23:29:14.058Z,2.18
2023-02-09T23:31:42.971Z,2.22
2023-02-09T23:34:18.744Z,2.26
2023-02-09T23:36:46.481Z,2.33
2023-02-09T23:39:19.443Z,2.36
2023-02-09T23:41:47.087Z,2.41
2023-02-09T23:44:21.302Z,2.45
2023-02-09T23:46:48.955Z,2.51
2023-02-09T23:49:16.823Z,2.53
2023-02-09T23:51:46.865Z,2.55
2023-02-09T23:54:14.932Z,2.56
2023-02-09T23:56:43.202Z,2.61
2023-02-09T23:59:15.257Z,2.64
